sensor_id;sensor_type;location;lat;lon;timestamp;P1;durP1;ratioP1;P2;durP2;ratioP2
25345;SDS011;13300;51.032;3.710;2022-07-23T00:02:10;11.07;;;7.25;;
25345;SDS011;13300;51.032;3.710;2022-07-23T00:04:35;10.35;;;7.13;;
25345;SDS011;13300;51.032;3.710;2022-07-23T00:07:01;10.48;;;7.55;;
25345;SDS011;13300;51.032;3.710;2022-07-23T00:09:27;9.13;;;6.65;;
25345;SDS011;13300;51.032;3.710;2022-07-23T00:11:55;9.43;;;6.88;;
25345;SDS011;13300;51.032;3.710;2022-07-23T00:14:21;10.38;;;6.68;;
25345;SDS011;13300;51.032;3.710;2022-07-23T00:16:47;11.80;;;6.95;;
25345;SDS011;13300;51.032;3.710;2022-07-23T00:19:12;11.77;;;6.80;;
25345;SDS011;13300;51.032;3.710;2022-07-23T00:21:38;12.02;;;7.22;;
25345;SDS011;13300;51.032;3.710;2022-07-23T00:24:04;9.32;;;6.78;;
25345;SDS011;13300;51.032;3.710;2022-07-23T00:26:30;9.48;;;6.72;;
25345;SDS011;13300;51.032;3.710;2022-07-23T00:28:56;9.30;;;6.57;;
25345;SDS011;13300;51.032;3.710;2022-07-23T00:31:21;11.07;;;6.90;;
25345;SDS011;13300;51.032;3.710;2022-07-23T00:33:47;13.52;;;7.70;;
25345;SDS011;13300;51.032;3.710;2022-07-23T00:36:12;11.77;;;7.15;;
25345;SDS011;13300;51.032;3.710;2022-07-23T00:38:38;10.27;;;7.15;;
25345;SDS011;13300;51.032;3.710;2022-07-23T00:41:04;11.82;;;7.82;;
25345;SDS011;13300;51.032;3.710;2022-07-23T00:43:30;16.55;;;7.30;;
25345;SDS011;13300;51.032;3.710;2022-07-23T00:45:55;11.52;;;7.18;;
25345;SDS011;13300;51.032;3.710;2022-07-23T00:48:21;12.05;;;7.45;;
25345;SDS011;13300;51.032;3.710;2022-07-23T00:50:47;13.23;;;7.47;;
25345;SDS011;13300;51.032;3.710;2022-07-23T00:53:13;9.88;;;7.45;;
25345;SDS011;13300;51.032;3.710;2022-07-23T00:55:39;11.40;;;7.35;;
25345;SDS011;13300;51.032;3.710;2022-07-23T00:58:04;11.93;;;7.40;;
25345;SDS011;13300;51.032;3.710;2022-07-23T01:00:31;10.88;;;7.63;;
25345;SDS011;13300;51.032;3.710;2022-07-23T01:02:56;12.25;;;7.57;;
25345;SDS011;13300;51.032;3.710;2022-07-23T01:05:22;13.45;;;7.85;;
25345;SDS011;13300;51.032;3.710;2022-07-23T01:07:49;14.70;;;7.57;;
25345;SDS011;13300;51.032;3.710;2022-07-23T01:10:15;13.48;;;7.75;;
25345;SDS011;13300;51.032;3.710;2022-07-23T01:13:00;11.13;;;7.20;;
25345;SDS011;13300;51.032;3.710;2022-07-23T01:15:34;9.52;;;7.38;;
25345;SDS011;13300;51.032;3.710;2022-07-23T01:18:01;13.02;;;8.32;;
25345;SDS011;13300;51.032;3.710;2022-07-23T01:20:28;11.93;;;8.20;;
25345;SDS011;13300;51.032;3.710;2022-07-23T01:22:54;12.60;;;7.88;;
25345;SDS011;13300;51.032;3.710;2022-07-23T01:25:20;12.55;;;8.35;;
25345;SDS011;13300;51.032;3.710;2022-07-23T01:27:46;17.95;;;8.23;;
25345;SDS011;13300;51.032;3.710;2022-07-23T01:30:12;11.50;;;8.52;;
25345;SDS011;13300;51.032;3.710;2022-07-23T01:32:38;13.45;;;8.70;;
25345;SDS011;13300;51.032;3.710;2022-07-23T01:35:04;13.60;;;8.48;;
25345;SDS011;13300;51.032;3.710;2022-07-23T01:37:31;15.43;;;8.63;;
25345;SDS011;13300;51.032;3.710;2022-07-23T01:39:56;15.20;;;8.98;;
25345;SDS011;13300;51.032;3.710;2022-07-23T01:42:22;13.98;;;8.73;;
25345;SDS011;13300;51.032;3.710;2022-07-23T01:44:48;14.00;;;9.43;;
25345;SDS011;13300;51.032;3.710;2022-07-23T01:47:14;13.32;;;8.98;;
25345;SDS011;13300;51.032;3.710;2022-07-23T01:49:40;12.55;;;8.77;;
25345;SDS011;13300;51.032;3.710;2022-07-23T01:52:06;13.88;;;8.65;;
25345;SDS011;13300;51.032;3.710;2022-07-23T01:54:35;10.57;;;7.35;;
25345;SDS011;13300;51.032;3.710;2022-07-23T01:57:02;15.85;;;8.90;;
25345;SDS011;13300;51.032;3.710;2022-07-23T01:59:27;11.00;;;8.07;;
25345;SDS011;13300;51.032;3.710;2022-07-23T02:01:53;15.65;;;8.63;;
25345;SDS011;13300;51.032;3.710;2022-07-23T02:04:19;11.77;;;8.45;;
25345;SDS011;13300;51.032;3.710;2022-07-23T02:06:46;14.20;;;8.60;;
25345;SDS011;13300;51.032;3.710;2022-07-23T02:09:12;14.88;;;9.18;;
25345;SDS011;13300;51.032;3.710;2022-07-23T02:11:38;13.25;;;8.65;;
25345;SDS011;13300;51.032;3.710;2022-07-23T02:14:04;15.82;;;8.38;;
25345;SDS011;13300;51.032;3.710;2022-07-23T02:16:30;13.43;;;8.80;;
25345;SDS011;13300;51.032;3.710;2022-07-23T02:18:56;11.55;;;8.18;;
25345;SDS011;13300;51.032;3.710;2022-07-23T02:21:22;15.07;;;8.60;;
25345;SDS011;13300;51.032;3.710;2022-07-23T02:23:47;14.05;;;8.13;;
25345;SDS011;13300;51.032;3.710;2022-07-23T02:26:13;12.00;;;8.35;;
25345;SDS011;13300;51.032;3.710;2022-07-23T02:28:39;12.48;;;8.27;;
25345;SDS011;13300;51.032;3.710;2022-07-23T02:31:04;14.18;;;8.75;;
25345;SDS011;13300;51.032;3.710;2022-07-23T02:33:31;16.67;;;9.10;;
25345;SDS011;13300;51.032;3.710;2022-07-23T02:35:57;13.05;;;8.15;;
25345;SDS011;13300;51.032;3.710;2022-07-23T02:38:23;14.82;;;9.30;;
25345;SDS011;13300;51.032;3.710;2022-07-23T02:40:49;14.10;;;8.45;;
25345;SDS011;13300;51.032;3.710;2022-07-23T02:43:14;15.25;;;8.77;;
25345;SDS011;13300;51.032;3.710;2022-07-23T02:45:40;14.25;;;8.90;;
25345;SDS011;13300;51.032;3.710;2022-07-23T02:48:06;16.92;;;9.10;;
25345;SDS011;13300;51.032;3.710;2022-07-23T02:50:31;12.27;;;8.80;;
25345;SDS011;13300;51.032;3.710;2022-07-23T02:52:57;15.50;;;8.77;;
25345;SDS011;13300;51.032;3.710;2022-07-23T02:55:23;14.32;;;8.32;;
25345;SDS011;13300;51.032;3.710;2022-07-23T02:57:49;12.48;;;9.13;;
25345;SDS011;13300;51.032;3.710;2022-07-23T03:00:14;13.23;;;9.18;;
25345;SDS011;13300;51.032;3.710;2022-07-23T03:02:40;11.52;;;8.48;;
25345;SDS011;13300;51.032;3.710;2022-07-23T03:05:06;15.13;;;9.07;;
25345;SDS011;13300;51.032;3.710;2022-07-23T03:07:32;15.65;;;9.27;;
25345;SDS011;13300;51.032;3.710;2022-07-23T03:09:57;14.63;;;8.98;;
25345;SDS011;13300;51.032;3.710;2022-07-23T03:12:23;16.05;;;8.80;;
25345;SDS011;13300;51.032;3.710;2022-07-23T03:14:49;14.25;;;8.13;;
25345;SDS011;13300;51.032;3.710;2022-07-23T03:17:14;11.05;;;8.40;;
25345;SDS011;13300;51.032;3.710;2022-07-23T03:19:40;15.68;;;9.25;;
25345;SDS011;13300;51.032;3.710;2022-07-23T03:22:06;14.88;;;9.13;;
25345;SDS011;13300;51.032;3.710;2022-07-23T03:24:32;12.63;;;8.20;;
25345;SDS011;13300;51.032;3.710;2022-07-23T03:27:16;14.20;;;8.20;;
25345;SDS011;13300;51.032;3.710;2022-07-23T03:29:42;14.77;;;9.00;;
25345;SDS011;13300;51.032;3.710;2022-07-23T03:32:08;13.25;;;9.07;;
25345;SDS011;13300;51.032;3.710;2022-07-23T03:34:34;15.35;;;9.63;;
25345;SDS011;13300;51.032;3.710;2022-07-23T03:37:00;15.88;;;8.80;;
25345;SDS011;13300;51.032;3.710;2022-07-23T03:39:26;13.18;;;8.60;;
25345;SDS011;13300;51.032;3.710;2022-07-23T03:41:52;14.63;;;8.63;;
25345;SDS011;13300;51.032;3.710;2022-07-23T03:44:18;13.13;;;9.25;;
25345;SDS011;13300;51.032;3.710;2022-07-23T03:46:43;12.85;;;9.27;;
25345;SDS011;13300;51.032;3.710;2022-07-23T03:49:09;12.30;;;8.82;;
25345;SDS011;13300;51.032;3.710;2022-07-23T03:51:35;15.00;;;9.43;;
25345;SDS011;13300;51.032;3.710;2022-07-23T03:54:00;17.08;;;10.10;;
25345;SDS011;13300;51.032;3.710;2022-07-23T03:56:26;16.75;;;9.48;;
25345;SDS011;13300;51.032;3.710;2022-07-23T03:58:52;13.70;;;10.07;;
25345;SDS011;13300;51.032;3.710;2022-07-23T04:01:17;14.95;;;9.75;;
25345;SDS011;13300;51.032;3.710;2022-07-23T04:03:43;15.75;;;9.73;;
25345;SDS011;13300;51.032;3.710;2022-07-23T04:06:09;14.48;;;9.20;;
25345;SDS011;13300;51.032;3.710;2022-07-23T04:08:34;15.52;;;9.48;;
25345;SDS011;13300;51.032;3.710;2022-07-23T04:11:00;14.55;;;9.00;;
25345;SDS011;13300;51.032;3.710;2022-07-23T04:13:26;14.60;;;8.88;;
25345;SDS011;13300;51.032;3.710;2022-07-23T04:15:51;15.40;;;10.00;;
25345;SDS011;13300;51.032;3.710;2022-07-23T04:18:17;14.57;;;9.43;;
25345;SDS011;13300;51.032;3.710;2022-07-23T04:20:43;16.70;;;8.93;;
25345;SDS011;13300;51.032;3.710;2022-07-23T04:23:09;12.52;;;8.82;;
25345;SDS011;13300;51.032;3.710;2022-07-23T04:25:35;14.35;;;9.73;;
25345;SDS011;13300;51.032;3.710;2022-07-23T04:28:01;13.57;;;9.05;;
25345;SDS011;13300;51.032;3.710;2022-07-23T04:30:27;14.02;;;9.98;;
25345;SDS011;13300;51.032;3.710;2022-07-23T04:32:53;15.95;;;10.43;;
25345;SDS011;13300;51.032;3.710;2022-07-23T04:35:18;17.15;;;9.90;;
25345;SDS011;13300;51.032;3.710;2022-07-23T04:37:44;18.20;;;11.02;;
25345;SDS011;13300;51.032;3.710;2022-07-23T04:40:10;16.88;;;11.27;;
25345;SDS011;13300;51.032;3.710;2022-07-23T04:42:37;15.63;;;10.48;;
25345;SDS011;13300;51.032;3.710;2022-07-23T04:45:03;16.00;;;10.32;;
25345;SDS011;13300;51.032;3.710;2022-07-23T04:47:29;12.88;;;9.43;;
25345;SDS011;13300;51.032;3.710;2022-07-23T04:49:55;12.70;;;8.68;;
25345;SDS011;13300;51.032;3.710;2022-07-23T04:52:21;15.77;;;9.68;;
25345;SDS011;13300;51.032;3.710;2022-07-23T04:54:47;13.93;;;9.85;;
25345;SDS011;13300;51.032;3.710;2022-07-23T04:57:13;15.82;;;10.30;;
25345;SDS011;13300;51.032;3.710;2022-07-23T04:59:39;15.10;;;10.18;;
25345;SDS011;13300;51.032;3.710;2022-07-23T05:02:04;15.02;;;10.15;;
25345;SDS011;13300;51.032;3.710;2022-07-23T05:04:30;14.20;;;10.27;;
25345;SDS011;13300;51.032;3.710;2022-07-23T05:06:56;16.30;;;10.45;;
25345;SDS011;13300;51.032;3.710;2022-07-23T05:09:22;13.70;;;9.50;;
25345;SDS011;13300;51.032;3.710;2022-07-23T05:11:48;16.10;;;9.65;;
25345;SDS011;13300;51.032;3.710;2022-07-23T05:14:14;14.35;;;9.90;;
25345;SDS011;13300;51.032;3.710;2022-07-23T05:16:40;12.13;;;9.27;;
25345;SDS011;13300;51.032;3.710;2022-07-23T05:19:05;14.25;;;8.95;;
25345;SDS011;13300;51.032;3.710;2022-07-23T05:21:31;16.77;;;10.00;;
25345;SDS011;13300;51.032;3.710;2022-07-23T05:23:57;12.35;;;9.48;;
25345;SDS011;13300;51.032;3.710;2022-07-23T05:26:22;14.98;;;9.88;;
25345;SDS011;13300;51.032;3.710;2022-07-23T05:28:49;10.68;;;8.73;;
25345;SDS011;13300;51.032;3.710;2022-07-23T05:31:15;12.25;;;9.55;;
25345;SDS011;13300;51.032;3.710;2022-07-23T05:33:40;14.05;;;9.27;;
25345;SDS011;13300;51.032;3.710;2022-07-23T05:36:06;12.40;;;9.05;;
25345;SDS011;13300;51.032;3.710;2022-07-23T05:38:32;10.90;;;8.45;;
25345;SDS011;13300;51.032;3.710;2022-07-23T05:40:58;11.65;;;8.07;;
25345;SDS011;13300;51.032;3.710;2022-07-23T05:43:24;11.80;;;9.32;;
25345;SDS011;13300;51.032;3.710;2022-07-23T05:45:50;14.40;;;10.05;;
25345;SDS011;13300;51.032;3.710;2022-07-23T05:48:15;12.85;;;8.98;;
25345;SDS011;13300;51.032;3.710;2022-07-23T05:50:41;13.00;;;9.18;;
25345;SDS011;13300;51.032;3.710;2022-07-23T05:53:07;13.35;;;9.50;;
25345;SDS011;13300;51.032;3.710;2022-07-23T05:55:32;15.15;;;8.77;;
25345;SDS011;13300;51.032;3.710;2022-07-23T05:57:59;15.68;;;9.25;;
25345;SDS011;13300;51.032;3.710;2022-07-23T06:00:25;12.00;;;9.68;;
25345;SDS011;13300;51.032;3.710;2022-07-23T06:02:51;14.68;;;9.93;;
25345;SDS011;13300;51.032;3.710;2022-07-23T06:05:17;14.90;;;9.05;;
25345;SDS011;13300;51.032;3.710;2022-07-23T06:07:43;15.13;;;10.05;;
25345;SDS011;13300;51.032;3.710;2022-07-23T06:10:09;12.85;;;9.18;;
25345;SDS011;13300;51.032;3.710;2022-07-23T06:12:35;15.20;;;9.68;;
25345;SDS011;13300;51.032;3.710;2022-07-23T06:15:02;13.57;;;8.98;;
25345;SDS011;13300;51.032;3.710;2022-07-23T06:17:28;13.05;;;8.90;;
25345;SDS011;13300;51.032;3.710;2022-07-23T06:19:55;9.68;;;8.07;;
25345;SDS011;13300;51.032;3.710;2022-07-23T06:22:21;14.68;;;9.63;;
25345;SDS011;13300;51.032;3.710;2022-07-23T06:24:47;11.93;;;9.60;;
25345;SDS011;13300;51.032;3.710;2022-07-23T06:27:13;13.25;;;8.93;;
25345;SDS011;13300;51.032;3.710;2022-07-23T06:29:38;13.50;;;9.52;;
25345;SDS011;13300;51.032;3.710;2022-07-23T06:32:06;14.50;;;9.05;;
25345;SDS011;13300;51.032;3.710;2022-07-23T06:34:32;13.73;;;8.95;;
25345;SDS011;13300;51.032;3.710;2022-07-23T06:36:58;14.95;;;8.35;;
25345;SDS011;13300;51.032;3.710;2022-07-23T06:39:24;14.25;;;8.95;;
25345;SDS011;13300;51.032;3.710;2022-07-23T06:41:49;11.02;;;8.35;;
25345;SDS011;13300;51.032;3.710;2022-07-23T06:44:15;11.68;;;8.73;;
25345;SDS011;13300;51.032;3.710;2022-07-23T06:46:41;11.13;;;8.40;;
25345;SDS011;13300;51.032;3.710;2022-07-23T06:49:07;13.13;;;8.35;;
25345;SDS011;13300;51.032;3.710;2022-07-23T06:51:32;10.90;;;8.95;;
25345;SDS011;13300;51.032;3.710;2022-07-23T06:53:58;14.90;;;8.98;;
25345;SDS011;13300;51.032;3.710;2022-07-23T06:56:24;13.75;;;8.35;;
25345;SDS011;13300;51.032;3.710;2022-07-23T06:58:50;11.10;;;8.20;;
25345;SDS011;13300;51.032;3.710;2022-07-23T07:01:15;14.40;;;8.82;;
25345;SDS011;13300;51.032;3.710;2022-07-23T07:03:41;11.95;;;9.15;;
25345;SDS011;13300;51.032;3.710;2022-07-23T07:06:07;11.70;;;8.63;;
25345;SDS011;13300;51.032;3.710;2022-07-23T07:08:33;13.70;;;8.30;;
25345;SDS011;13300;51.032;3.710;2022-07-23T07:10:58;12.75;;;8.48;;
25345;SDS011;13300;51.032;3.710;2022-07-23T07:13:24;9.82;;;7.30;;
25345;SDS011;13300;51.032;3.710;2022-07-23T07:15:50;17.02;;;8.70;;
25345;SDS011;13300;51.032;3.710;2022-07-23T07:18:16;10.40;;;7.53;;
25345;SDS011;13300;51.032;3.710;2022-07-23T07:20:41;9.77;;;7.78;;
25345;SDS011;13300;51.032;3.710;2022-07-23T07:23:07;9.23;;;6.85;;
25345;SDS011;13300;51.032;3.710;2022-07-23T07:25:33;11.73;;;6.95;;
25345;SDS011;13300;51.032;3.710;2022-07-23T07:27:59;9.13;;;6.05;;
25345;SDS011;13300;51.032;3.710;2022-07-23T07:30:24;11.40;;;7.40;;
25345;SDS011;13300;51.032;3.710;2022-07-23T07:32:50;10.82;;;6.53;;
25345;SDS011;13300;51.032;3.710;2022-07-23T07:35:16;12.60;;;7.13;;
25345;SDS011;13300;51.032;3.710;2022-07-23T07:37:41;9.73;;;7.13;;
25345;SDS011;13300;51.032;3.710;2022-07-23T07:40:07;10.73;;;6.97;;
25345;SDS011;13300;51.032;3.710;2022-07-23T07:42:33;10.00;;;7.22;;
25345;SDS011;13300;51.032;3.710;2022-07-23T07:44:59;11.20;;;7.50;;
25345;SDS011;13300;51.032;3.710;2022-07-23T07:47:25;10.38;;;6.82;;
25345;SDS011;13300;51.032;3.710;2022-07-23T07:49:50;9.60;;;6.78;;
25345;SDS011;13300;51.032;3.710;2022-07-23T07:52:16;9.48;;;6.75;;
25345;SDS011;13300;51.032;3.710;2022-07-23T07:54:42;11.63;;;7.25;;
25345;SDS011;13300;51.032;3.710;2022-07-23T07:57:08;11.82;;;7.57;;
25345;SDS011;13300;51.032;3.710;2022-07-23T07:59:34;9.70;;;7.30;;
25345;SDS011;13300;51.032;3.710;2022-07-23T08:02:00;9.82;;;7.05;;
25345;SDS011;13300;51.032;3.710;2022-07-23T08:04:25;11.68;;;7.38;;
25345;SDS011;13300;51.032;3.710;2022-07-23T08:06:51;12.43;;;7.53;;
25345;SDS011;13300;51.032;3.710;2022-07-23T08:09:17;11.93;;;8.15;;
25345;SDS011;13300;51.032;3.710;2022-07-23T08:11:42;10.18;;;7.78;;
25345;SDS011;13300;51.032;3.710;2022-07-23T08:14:08;10.77;;;7.65;;
25345;SDS011;13300;51.032;3.710;2022-07-23T08:16:36;13.25;;;8.23;;
25345;SDS011;13300;51.032;3.710;2022-07-23T08:19:01;10.88;;;7.72;;
25345;SDS011;13300;51.032;3.710;2022-07-23T08:21:27;12.40;;;7.43;;
25345;SDS011;13300;51.032;3.710;2022-07-23T08:23:53;12.13;;;7.78;;
25345;SDS011;13300;51.032;3.710;2022-07-23T08:26:18;12.48;;;8.23;;
25345;SDS011;13300;51.032;3.710;2022-07-23T08:28:44;8.77;;;7.15;;
25345;SDS011;13300;51.032;3.710;2022-07-23T08:31:09;12.45;;;7.53;;
25345;SDS011;13300;51.032;3.710;2022-07-23T08:33:36;12.98;;;7.97;;
25345;SDS011;13300;51.032;3.710;2022-07-23T08:36:02;10.82;;;7.30;;
25345;SDS011;13300;51.032;3.710;2022-07-23T08:38:30;10.50;;;7.20;;
25345;SDS011;13300;51.032;3.710;2022-07-23T08:40:57;9.68;;;6.13;;
25345;SDS011;13300;51.032;3.710;2022-07-23T08:43:23;8.73;;;6.45;;
25345;SDS011;13300;51.032;3.710;2022-07-23T08:45:52;9.48;;;6.95;;
25345;SDS011;13300;51.032;3.710;2022-07-23T08:48:21;8.15;;;6.95;;
25345;SDS011;13300;51.032;3.710;2022-07-23T08:50:50;10.13;;;6.90;;
25345;SDS011;13300;51.032;3.710;2022-07-23T08:53:17;10.13;;;7.03;;
25345;SDS011;13300;51.032;3.710;2022-07-23T08:55:48;8.65;;;6.70;;
25345;SDS011;13300;51.032;3.710;2022-07-23T08:58:16;8.27;;;5.97;;
25345;SDS011;13300;51.032;3.710;2022-07-23T09:00:43;10.73;;;5.93;;
25345;SDS011;13300;51.032;3.710;2022-07-23T09:03:13;11.15;;;6.35;;
25345;SDS011;13300;51.032;3.710;2022-07-23T09:05:42;5.88;;;4.57;;
25345;SDS011;13300;51.032;3.710;2022-07-23T09:08:15;7.85;;;4.93;;
25345;SDS011;13300;51.032;3.710;2022-07-23T09:10:50;9.48;;;5.55;;
25345;SDS011;13300;51.032;3.710;2022-07-23T09:15:56;7.25;;;5.20;;
25345;SDS011;13300;51.032;3.710;2022-07-23T09:18:43;10.43;;;5.05;;
25345;SDS011;13300;51.032;3.710;2022-07-23T09:24:00;8.63;;;5.00;;
25345;SDS011;13300;51.032;3.710;2022-07-23T09:26:43;6.60;;;4.75;;
25345;SDS011;13300;51.032;3.710;2022-07-23T09:31:51;6.18;;;4.60;;
25345;SDS011;13300;51.032;3.710;2022-07-23T09:36:45;6.20;;;4.75;;
25345;SDS011;13300;51.032;3.710;2022-07-23T09:39:12;7.43;;;5.25;;
25345;SDS011;13300;51.032;3.710;2022-07-23T09:41:40;6.38;;;5.20;;
25345;SDS011;13300;51.032;3.710;2022-07-23T09:44:14;10.18;;;6.78;;
25345;SDS011;13300;51.032;3.710;2022-07-23T09:46:41;6.22;;;4.20;;
25345;SDS011;13300;51.032;3.710;2022-07-23T09:49:26;5.88;;;4.30;;
25345;SDS011;13300;51.032;3.710;2022-07-23T09:51:55;9.02;;;4.93;;
25345;SDS011;13300;51.032;3.710;2022-07-23T09:56:56;7.20;;;5.03;;
25345;SDS011;13300;51.032;3.710;2022-07-23T09:59:29;6.53;;;4.80;;
25345;SDS011;13300;51.032;3.710;2022-07-23T10:01:58;5.97;;;4.40;;
25345;SDS011;13300;51.032;3.710;2022-07-23T10:04:25;6.32;;;3.90;;
25345;SDS011;13300;51.032;3.710;2022-07-23T10:06:53;6.57;;;4.22;;
25345;SDS011;13300;51.032;3.710;2022-07-23T10:09:24;4.60;;;3.70;;
25345;SDS011;13300;51.032;3.710;2022-07-23T10:11:59;4.70;;;3.60;;
25345;SDS011;13300;51.032;3.710;2022-07-23T10:14:33;6.03;;;3.38;;
25345;SDS011;13300;51.032;3.710;2022-07-23T10:17:01;5.72;;;3.53;;
25345;SDS011;13300;51.032;3.710;2022-07-23T10:19:28;7.40;;;4.07;;
25345;SDS011;13300;51.032;3.710;2022-07-23T10:21:56;6.90;;;4.13;;
25345;SDS011;13300;51.032;3.710;2022-07-23T10:30:31;4.47;;;3.22;;
25345;SDS011;13300;51.032;3.710;2022-07-23T10:38:30;4.32;;;3.35;;
25345;SDS011;13300;51.032;3.710;2022-07-23T10:41:01;4.18;;;3.33;;
25345;SDS011;13300;51.032;3.710;2022-07-23T10:45:56;5.30;;;3.30;;
25345;SDS011;13300;51.032;3.710;2022-07-23T10:48:41;3.70;;;2.97;;
25345;SDS011;13300;51.032;3.710;2022-07-23T10:51:15;3.35;;;2.97;;
25345;SDS011;13300;51.032;3.710;2022-07-23T10:53:52;6.05;;;3.30;;
25345;SDS011;13300;51.032;3.710;2022-07-23T10:59:21;10.45;;;4.47;;
25345;SDS011;13300;51.032;3.710;2022-07-23T11:01:47;4.82;;;3.40;;
25345;SDS011;13300;51.032;3.710;2022-07-23T11:04:13;4.22;;;3.00;;
25345;SDS011;13300;51.032;3.710;2022-07-23T11:17:58;5.10;;;2.70;;
25345;SDS011;13300;51.032;3.710;2022-07-23T11:20:27;2.85;;;2.28;;
25345;SDS011;13300;51.032;3.710;2022-07-23T11:22:57;3.75;;;2.47;;
25345;SDS011;13300;51.032;3.710;2022-07-23T11:27:53;2.92;;;2.28;;
25345;SDS011;13300;51.032;3.710;2022-07-23T11:35:38;3.22;;;2.22;;
25345;SDS011;13300;51.032;3.710;2022-07-23T11:40:37;3.22;;;2.53;;
25345;SDS011;13300;51.032;3.710;2022-07-23T11:43:03;3.78;;;2.50;;
25345;SDS011;13300;51.032;3.710;2022-07-23T11:48:14;5.00;;;2.40;;
25345;SDS011;13300;51.032;3.710;2022-07-23T11:50:46;5.03;;;2.38;;
25345;SDS011;13300;51.032;3.710;2022-07-23T11:53:12;3.95;;;2.85;;
25345;SDS011;13300;51.032;3.710;2022-07-23T11:55:38;4.47;;;2.40;;
25345;SDS011;13300;51.032;3.710;2022-07-23T11:58:04;3.15;;;2.38;;
25345;SDS011;13300;51.032;3.710;2022-07-23T12:00:30;4.70;;;3.13;;
25345;SDS011;13300;51.032;3.710;2022-07-23T12:02:57;3.92;;;2.70;;
25345;SDS011;13300;51.032;3.710;2022-07-23T12:05:35;6.20;;;3.25;;
25345;SDS011;13300;51.032;3.710;2022-07-23T12:08:10;4.18;;;2.92;;
25345;SDS011;13300;51.032;3.710;2022-07-23T12:10:40;4.95;;;2.95;;
25345;SDS011;13300;51.032;3.710;2022-07-23T12:13:12;3.72;;;2.60;;
25345;SDS011;13300;51.032;3.710;2022-07-23T12:15:48;3.30;;;2.40;;
25345;SDS011;13300;51.032;3.710;2022-07-23T12:18:22;4.65;;;2.55;;
25345;SDS011;13300;51.032;3.710;2022-07-23T12:20:50;4.90;;;2.92;;
25345;SDS011;13300;51.032;3.710;2022-07-23T12:25:46;4.40;;;2.95;;
25345;SDS011;13300;51.032;3.710;2022-07-23T12:30:53;3.85;;;2.42;;
25345;SDS011;13300;51.032;3.710;2022-07-23T12:33:22;4.47;;;2.72;;
25345;SDS011;13300;51.032;3.710;2022-07-23T12:35:54;5.43;;;2.67;;
25345;SDS011;13300;51.032;3.710;2022-07-23T12:38:23;6.00;;;3.33;;
25345;SDS011;13300;51.032;3.710;2022-07-23T12:40:58;5.82;;;2.90;;
25345;SDS011;13300;51.032;3.710;2022-07-23T12:43:37;4.82;;;3.35;;
25345;SDS011;13300;51.032;3.710;2022-07-23T12:46:15;8.68;;;5.43;;
25345;SDS011;13300;51.032;3.710;2022-07-23T12:51:20;5.55;;;3.38;;
25345;SDS011;13300;51.032;3.710;2022-07-23T12:53:55;5.03;;;3.40;;
25345;SDS011;13300;51.032;3.710;2022-07-23T12:56:30;4.13;;;2.47;;
25345;SDS011;13300;51.032;3.710;2022-07-23T12:58:58;4.63;;;2.70;;
25345;SDS011;13300;51.032;3.710;2022-07-23T13:01:28;4.65;;;2.78;;
25345;SDS011;13300;51.032;3.710;2022-07-23T13:03:59;3.10;;;2.53;;
25345;SDS011;13300;51.032;3.710;2022-07-23T13:06:33;4.90;;;2.88;;
25345;SDS011;13300;51.032;3.710;2022-07-23T13:09:01;3.75;;;2.70;;
25345;SDS011;13300;51.032;3.710;2022-07-23T13:11:29;4.05;;;2.67;;
25345;SDS011;13300;51.032;3.710;2022-07-23T13:13:55;3.50;;;2.63;;
25345;SDS011;13300;51.032;3.710;2022-07-23T13:16:21;3.28;;;2.85;;
25345;SDS011;13300;51.032;3.710;2022-07-23T13:18:47;3.20;;;2.70;;
25345;SDS011;13300;51.032;3.710;2022-07-23T13:21:13;5.53;;;3.00;;
25345;SDS011;13300;51.032;3.710;2022-07-23T13:23:39;4.70;;;3.13;;
25345;SDS011;13300;51.032;3.710;2022-07-23T13:26:04;5.32;;;3.33;;
25345;SDS011;13300;51.032;3.710;2022-07-23T13:28:30;4.85;;;3.00;;
25345;SDS011;13300;51.032;3.710;2022-07-23T13:30:56;4.57;;;3.83;;
25345;SDS011;13300;51.032;3.710;2022-07-23T13:33:22;4.47;;;3.05;;
25345;SDS011;13300;51.032;3.710;2022-07-23T13:35:50;5.43;;;3.42;;
25345;SDS011;13300;51.032;3.710;2022-07-23T13:38:17;5.55;;;2.88;;
25345;SDS011;13300;51.032;3.710;2022-07-23T13:40:45;7.63;;;3.70;;
25345;SDS011;13300;51.032;3.710;2022-07-23T13:43:13;7.15;;;4.07;;
25345;SDS011;13300;51.032;3.710;2022-07-23T13:45:41;4.90;;;2.92;;
25345;SDS011;13300;51.032;3.710;2022-07-23T13:48:08;4.75;;;3.42;;
25345;SDS011;13300;51.032;3.710;2022-07-23T13:50:34;7.85;;;4.00;;
25345;SDS011;13300;51.032;3.710;2022-07-23T13:53:04;4.82;;;3.42;;
25345;SDS011;13300;51.032;3.710;2022-07-23T13:55:31;6.25;;;3.50;;
25345;SDS011;13300;51.032;3.710;2022-07-23T13:57:58;5.57;;;3.25;;
25345;SDS011;13300;51.032;3.710;2022-07-23T14:00:24;8.60;;;3.80;;
25345;SDS011;13300;51.032;3.710;2022-07-23T14:02:50;7.80;;;4.00;;
25345;SDS011;13300;51.032;3.710;2022-07-23T14:05:16;7.35;;;3.33;;
25345;SDS011;13300;51.032;3.710;2022-07-23T14:07:42;4.68;;;3.08;;
25345;SDS011;13300;51.032;3.710;2022-07-23T14:10:09;4.30;;;3.90;;
25345;SDS011;13300;51.032;3.710;2022-07-23T14:12:35;6.22;;;3.28;;
25345;SDS011;13300;51.032;3.710;2022-07-23T14:15:02;5.25;;;4.03;;
25345;SDS011;13300;51.032;3.710;2022-07-23T14:17:29;5.45;;;4.00;;
25345;SDS011;13300;51.032;3.710;2022-07-23T14:19:54;7.32;;;4.25;;
25345;SDS011;13300;51.032;3.710;2022-07-23T14:22:20;5.03;;;3.75;;
25345;SDS011;13300;51.032;3.710;2022-07-23T14:24:47;7.47;;;3.97;;
25345;SDS011;13300;51.032;3.710;2022-07-23T14:27:12;6.10;;;3.83;;
25345;SDS011;13300;51.032;3.710;2022-07-23T14:29:38;5.80;;;3.85;;
25345;SDS011;13300;51.032;3.710;2022-07-23T14:32:04;4.97;;;3.70;;
25345;SDS011;13300;51.032;3.710;2022-07-23T14:34:30;4.90;;;3.70;;
25345;SDS011;13300;51.032;3.710;2022-07-23T14:36:56;4.97;;;3.83;;
25345;SDS011;13300;51.032;3.710;2022-07-23T14:39:24;3.90;;;3.58;;
25345;SDS011;13300;51.032;3.710;2022-07-23T14:41:50;4.53;;;3.70;;
25345;SDS011;13300;51.032;3.710;2022-07-23T14:44:16;6.80;;;3.75;;
25345;SDS011;13300;51.032;3.710;2022-07-23T14:46:41;7.65;;;4.45;;
25345;SDS011;13300;51.032;3.710;2022-07-23T14:49:07;3.40;;;3.10;;
25345;SDS011;13300;51.032;3.710;2022-07-23T14:51:33;4.57;;;3.50;;
25345;SDS011;13300;51.032;3.710;2022-07-23T14:53:59;6.47;;;4.00;;
25345;SDS011;13300;51.032;3.710;2022-07-23T14:56:24;5.20;;;3.55;;
25345;SDS011;13300;51.032;3.710;2022-07-23T14:58:50;6.47;;;4.72;;
25345;SDS011;13300;51.032;3.710;2022-07-23T15:01:16;7.80;;;5.13;;
25345;SDS011;13300;51.032;3.710;2022-07-23T15:03:41;5.75;;;3.95;;
25345;SDS011;13300;51.032;3.710;2022-07-23T15:06:07;5.90;;;3.95;;
25345;SDS011;13300;51.032;3.710;2022-07-23T15:08:33;5.45;;;4.30;;
25345;SDS011;13300;51.032;3.710;2022-07-23T15:10:59;4.45;;;4.03;;
25345;SDS011;13300;51.032;3.710;2022-07-23T15:13:24;5.10;;;3.97;;
25345;SDS011;13300;51.032;3.710;2022-07-23T15:15:50;6.53;;;4.75;;
25345;SDS011;13300;51.032;3.710;2022-07-23T15:18:16;6.68;;;4.43;;
25345;SDS011;13300;51.032;3.710;2022-07-23T15:20:41;8.10;;;4.63;;
25345;SDS011;13300;51.032;3.710;2022-07-23T15:23:07;6.13;;;3.97;;
25345;SDS011;13300;51.032;3.710;2022-07-23T15:25:33;8.63;;;3.97;;
25345;SDS011;13300;51.032;3.710;2022-07-23T15:27:59;6.82;;;4.90;;
25345;SDS011;13300;51.032;3.710;2022-07-23T15:30:25;8.32;;;4.97;;
25345;SDS011;13300;51.032;3.710;2022-07-23T15:32:52;5.68;;;4.57;;
25345;SDS011;13300;51.032;3.710;2022-07-23T15:35:18;6.38;;;4.50;;
25345;SDS011;13300;51.032;3.710;2022-07-23T15:37:44;6.45;;;4.90;;
25345;SDS011;13300;51.032;3.710;2022-07-23T15:40:10;7.95;;;5.10;;
25345;SDS011;13300;51.032;3.710;2022-07-23T15:42:36;8.43;;;5.10;;